Wellsburg, West Virginia
Current Conditions -  °F | °C
As of 7:13 AM on Friday 28 Nov 2014 (Local Time) from KHLG Reporting Station
Overcast Overcast  
Wind Chill: 13°   Ceiling: 1900
Heat Index: 25°   Visibility: 10mi
Dew Point: 16°   Wind: 14mph
Humidity: 69%   Direction: 310°NW
Pressure: 30.31"   Gusts: 21mph
Location:  40.27°N, 80.61°W
Report Text: KHLG 281213Z 31012G18KT 10SM FEW015 BKN019 OVC048 M04/M09 A3031 RMK AO2 T10391089
Loading
Personal Weather Stations






























Interactive Weather Map New forecast layout! Learn more

10-Day Weather Forecast

Advertisements
Track Severe Weather on mobile